Time;durP1;ratioP1;P1;durP2;ratioP2;P2;SDS_P1;SDS_P2;PMS_P1;PMS_P2;Temp;Humidity;BMP_temperature;BMP_pressure;BME280_temperature;BME280_humidity;BME280_pressure;Samples;Min_cycle;Max_cycle;Signal;HPM_P1;HPM_P2
2022/06/23 00:01:20;;;;;;;2.97;1.77;;;24.20;80.60;;;;;;5032971;28;20308;-76
2022/06/23 00:03:48;;;;;;;4.10;1.92;;;24.30;76.40;;;;;;5052848;28;20394;-77
2022/06/23 00:06:37;;;;;;;3.35;1.88;;;24.20;80.40;;;;;;5030724;28;20116;-78
2022/06/23 00:09:39;;;;;;;4.95;2.00;;;24.30;78.40;;;;;;5030098;28;20407;-78
2022/06/23 00:12:26;;;;;;;3.72;1.90;;;24.20;77.80;;;;;;4967613;28;20512;-75
2022/06/23 00:15:00;;;;;;;3.75;1.90;;;24.10;80.50;;;;;;4974425;28;20568;-65
2022/06/23 00:17:28;;;;;;;3.67;1.83;;;24.30;76.50;;;;;;4991007;28;20440;-65
2022/06/23 00:19:55;;;;;;;3.55;2.03;;;24.30;76.20;;;;;;4975917;28;20085;-65
2022/06/23 00:22:22;;;;;;;2.92;1.80;;;24.20;80.30;;;;;;4955034;28;20045;-65
2022/06/23 00:24:48;;;;;;;3.47;1.75;;;24.00;77.50;;;;;;4975724;28;20081;-66
2022/06/23 00:27:14;;;;;;;3.80;1.80;;;24.10;80.30;;;;;;4965732;28;20086;-64
2022/06/23 00:29:40;;;;;;;3.92;1.98;;;24.30;77.70;;;;;;4957875;28;20050;-65
2022/06/23 00:32:08;;;;;;;4.80;1.98;;;24.20;80.40;;;;;;4940349;28;20505;-77
2022/06/23 00:34:39;;;;;;;3.70;2.00;;;24.10;77.10;;;;;;4958225;28;20050;-65
2022/06/23 00:37:11;;;;;;;3.72;1.92;;;24.00;80.60;;;;;;4933719;28;20106;-71
2022/06/23 00:39:42;;;;;;;3.10;1.90;;;23.90;77.80;;;;;;4975752;28;20058;-72
2022/06/23 00:42:29;;;;;;;3.38;1.92;;;23.90;80.20;;;;;;4973374;28;20117;-66
2022/06/23 00:49:09;;;;;;;3.38;1.88;;;24.10;76.60;;;;;;5004098;28;20100;-65
2022/06/23 00:51:48;;;;;;;3.78;2.00;;;24.00;76.30;;;;;;4994964;28;20062;-65
2022/06/23 00:54:27;;;;;;;3.08;1.98;;;24.10;78.00;;;;;;4991754;28;20069;-65
2022/06/23 00:57:05;;;;;;;3.92;1.90;;;23.90;76.30;;;;;;4981341;28;20054;-76
2022/06/23 00:59:38;;;;;;;3.58;2.00;;;24.10;77.80;;;;;;4993013;28;20053;-77
2022/06/23 01:02:37;;;;;;;4.13;2.10;;;24.10;78.00;;;;;;4967449;28;20060;-78
2022/06/23 01:05:14;;;;;;;3.38;2.15;;;24.00;80.30;;;;;;5012615;28;20046;-64
2022/06/23 01:07:58;;;;;;;3.85;2.15;;;23.90;76.20;;;;;;5004480;28;20062;-64
2022/06/23 01:10:40;;;;;;;3.85;2.00;;;23.90;76.00;;;;;;4997585;28;20042;-65
2022/06/23 01:13:10;;;;;;;3.95;2.10;;;23.90;80.30;;;;;;4997527;28;20108;-65
2022/06/23 01:15:44;;;;;;;3.70;2.08;;;23.60;77.40;;;;;;4996456;28;20046;-65
2022/06/23 01:18:17;;;;;;;4.10;2.10;;;23.90;76.30;;;;;;4982929;28;20100;-65
2022/06/23 01:21:00;;;;;;;3.90;2.30;;;24.00;78.00;;;;;;5049638;28;20056;-65
2022/06/23 01:23:56;;;;;;;4.40;2.25;;;24.00;80.60;;;;;;5055597;28;20059;-65
2022/06/23 01:26:45;;;;;;;4.05;2.40;;;23.80;80.60;;;;;;5054379;28;20053;-65
2022/06/23 01:29:41;;;;;;;4.85;2.25;;;23.80;76.40;;;;;;5053585;28;20456;-65
2022/06/23 01:32:48;;;;;;;3.70;2.20;;;23.90;80.40;;;;;;5051677;28;20056;-75
2022/06/23 01:35:25;;;;;;;4.57;2.17;;;23.80;80.30;;;;;;5007862;28;20045;-65
2022/06/23 01:38:21;;;;;;;4.28;2.72;;;23.60;80.20;;;;;;4987212;28;20162;-74
2022/06/23 01:40:54;;;;;;;3.83;2.30;;;23.80;80.60;;;;;;4989320;28;20053;-65
2022/06/23 01:43:36;;;;;;;5.95;2.45;;;23.90;80.70;;;;;;5001458;28;20053;-66
2022/06/23 01:46:06;;;;;;;4.25;2.50;;;23.90;78.10;;;;;;4980554;28;20061;-65
2022/06/23 01:48:52;;;;;;;4.82;2.50;;;23.60;80.20;;;;;;4997169;28;20046;-65
2022/06/23 01:51:31;;;;;;;4.07;2.50;;;23.70;80.30;;;;;;4996338;28;20054;-67
2022/06/23 01:54:12;;;;;;;4.68;2.60;;;23.60;76.40;;;;;;5003296;28;20045;-64
2022/06/23 01:56:51;;;;;;;3.70;2.50;;;23.80;76.70;;;;;;5029527;28;20077;-64
2022/06/23 01:59:55;;;;;;;5.03;2.80;;;23.80;80.30;;;;;;4978521;28;20124;-65
2022/06/23 02:02:45;;;;;;;5.47;2.85;;;23.80;80.50;;;;;;5011331;28;20496;-65
2022/06/23 02:05:43;;;;;;;4.43;2.60;;;23.70;76.50;;;;;;5013463;28;20050;-65
2022/06/23 02:08:27;;;;;;;4.90;2.70;;;23.50;80.30;;;;;;4996597;28;20065;-78
2022/06/23 02:11:19;;;;;;;4.38;2.70;;;23.60;78.10;;;;;;5024705;28;20059;-78
2022/06/23 02:14:13;;;;;;;3.90;2.42;;;23.60;80.40;;;;;;5049349;28;20923;-73
2022/06/23 02:16:42;;;;;;;5.20;2.85;;;23.70;80.50;;;;;;5031423;28;20443;-65
2022/06/23 02:19:34;;;;;;;4.20;2.20;;;23.70;80.40;;;;;;4999996;28;20089;-65
2022/06/23 02:22:23;;;;;;;5.18;2.80;;;23.50;78.60;;;;;;5013256;28;20054;-66
2022/06/23 02:25:05;;;;;;;3.90;2.35;;;23.70;80.50;;;;;;4980223;28;20057;-65
2022/06/23 02:27:43;;;;;;;4.45;2.50;;;23.60;76.20;;;;;;4987964;28;20072;-75
2022/06/23 02:30:17;;;;;;;4.72;2.65;;;23.70;80.30;;;;;;4994762;28;20049;-77
2022/06/23 02:33:20;;;;;;;5.13;2.50;;;23.50;77.60;;;;;;4980184;28;20046;-74
2022/06/23 02:36:04;;;;;;;4.45;2.47;;;23.60;80.20;;;;;;4997494;28;20045;-77
2022/06/23 02:38:31;;;;;;;4.90;2.78;;;23.50;77.20;;;;;;4995144;28;20054;-78
2022/06/23 02:41:05;;;;;;;5.20;2.67;;;23.90;80.30;;;;;;4963311;28;20053;-77
2022/06/23 02:43:43;;;;;;;4.85;2.47;;;23.50;78.90;;;;;;4993350;28;20057;-65
2022/06/23 02:46:32;;;;;;;4.82;2.72;;;23.70;80.50;;;;;;5013100;28;20254;-65
2022/06/23 02:49:04;;;;;;;4.55;2.60;;;23.70;80.20;;;;;;5004910;28;20458;-65
2022/06/23 02:52:03;;;;;;;3.70;2.42;;;23.70;80.30;;;;;;5014701;28;20053;-65
2022/06/23 02:54:41;;;;;;;4.88;2.70;;;23.50;80.30;;;;;;5030218;28;20495;-65
2022/06/23 02:57:27;;;;;;;6.57;2.60;;;23.60;76.30;;;;;;5051709;28;20124;-79
2022/06/23 03:00:03;;;;;;;5.18;2.92;;;23.40;77.00;;;;;;5049957;28;20079;-72
2022/06/23 03:02:38;;;;;;;4.90;2.90;;;23.70;76.30;;;;;;5001083;28;20065;-79
2022/06/23 03:05:07;;;;;;;4.50;2.83;;;23.70;80.30;;;;;;5034001;28;20046;-78
2022/06/23 03:07:54;;;;;;;9.02;3.20;;;23.40;80.40;;;;;;5052981;28;20457;-78
2022/06/23 03:10:37;;;;;;;4.90;2.60;;;23.60;75.60;;;;;;5052481;28;20059;-69
2022/06/23 03:13:31;;;;;;;4.72;2.72;;;23.50;80.40;;;;;;5033822;28;20140;-78
2022/06/23 03:16:09;;;;;;;5.57;3.10;;;23.60;81.00;;;;;;5035211;28;20045;-64
2022/06/23 03:18:59;;;;;;;5.70;3.10;;;23.50;77.30;;;;;;5018725;28;20048;-67
2022/06/23 03:21:45;;;;;;;5.40;3.60;;;23.30;80.40;;;;;;5037073;28;20095;-65
2022/06/23 03:24:16;;;;;;;4.72;2.92;;;23.40;80.70;;;;;;5053016;28;20501;-65
2022/06/23 03:26:45;;;;;;;6.53;3.58;;;23.50;80.80;;;;;;5048684;28;20479;-65
2022/06/23 03:29:36;;;;;;;4.93;2.58;;;23.30;77.90;;;;;;5036421;28;20060;-76
2022/06/23 03:32:19;;;;;;;6.15;3.05;;;23.50;80.60;;;;;;5041062;28;20060;-75
2022/06/23 03:34:51;;;;;;;4.97;3.20;;;23.40;76.10;;;;;;5041140;28;20102;-71
2022/06/23 03:37:56;;;;;;;5.70;3.28;;;23.20;81.20;;;;;;5053889;28;20061;-78
2022/06/23 03:43:31;;;;;;;5.25;2.72;;;23.30;80.40;;;;;;5028446;28;20049;-64
2022/06/23 03:46:13;;;;;;;4.30;2.75;;;23.50;80.60;;;;;;5049337;28;20127;-63
2022/06/23 03:48:54;;;;;;;4.88;2.70;;;23.50;76.80;;;;;;5050009;28;20049;-64
2022/06/23 03:51:29;;;;;;;7.45;3.15;;;23.50;76.80;;;;;;5028804;28;20462;-63
2022/06/23 03:54:10;;;;;;;6.38;2.72;;;23.30;78.10;;;;;;5039120;28;20060;-65
2022/06/23 03:56:46;;;;;;;5.22;2.83;;;23.50;76.60;;;;;;5032966;28;20045;-64
2022/06/23 03:59:46;;;;;;;6.75;2.97;;;23.30;80.40;;;;;;5029950;28;20517;-64
2022/06/23 04:02:20;;;;;;;6.32;3.42;;;23.30;80.50;;;;;;5034032;28;20625;-64
2022/06/23 04:05:06;;;;;;;4.88;2.80;;;23.50;76.50;;;;;;5046958;28;20041;-64
2022/06/23 04:07:54;;;;;;;4.63;2.80;;;23.70;80.50;;;;;;5051495;28;20084;-75
2022/06/23 04:10:40;;;;;;;8.38;3.13;;;23.60;80.40;;;;;;5037277;28;20056;-78
2022/06/23 04:13:30;;;;;;;6.38;3.03;;;23.60;80.30;;;;;;5034831;28;20127;-77
2022/06/23 04:16:03;;;;;;;5.18;2.80;;;23.40;80.30;;;;;;5046826;28;20055;-76
2022/06/23 04:18:29;;;;;;;6.03;3.20;;;23.50;80.20;;;;;;5035586;28;20094;-76
2022/06/23 04:21:01;;;;;;;5.97;3.05;;;23.90;80.50;;;;;;5050198;28;20127;-76
2022/06/23 04:23:34;;;;;;;4.55;2.65;;;23.80;80.80;;;;;;5036037;28;20044;-77
2022/06/23 04:26:23;;;;;;;6.15;2.80;;;23.70;80.10;;;;;;5065033;28;20102;-77
2022/06/23 04:28:53;;;;;;;8.27;2.65;;;23.80;78.10;;;;;;5035450;28;20049;-78
2022/06/23 04:31:30;;;;;;;5.70;3.08;;;23.50;79.90;;;;;;5029152;28;20049;-64
2022/06/23 04:33:57;;;;;;;5.18;2.88;;;23.60;79.20;;;;;;5034373;28;20057;-73
2022/06/23 04:36:25;;;;;;;4.82;2.60;;;23.50;80.10;;;;;;5040326;28;20126;-77
2022/06/23 04:39:12;;;;;;;6.40;3.03;;;23.60;76.70;;;;;;5031217;28;20045;-78
2022/06/23 04:41:47;;;;;;;6.95;3.20;;;23.80;80.00;;;;;;4958614;28;20058;-76
2022/06/23 04:44:18;;;;;;;6.00;2.88;;;23.70;80.20;;;;;;4987149;28;20058;-73
2022/06/23 04:46:49;;;;;;;6.50;3.03;;;23.80;75.90;;;;;;4965093;28;20074;-76
2022/06/23 04:49:31;;;;;;;5.22;2.97;;;24.00;80.70;;;;;;4985052;28;20469;-76
2022/06/23 04:52:02;;;;;;;;;;;24.00;76.10;;;;;;4981797;28;20047;-71
2022/06/23 04:54:41;;;;;;;5.55;3.08;;;24.20;76.30;;;;;;4972130;28;19977;-76
2022/06/23 04:57:13;;;;;;;6.40;2.70;;;24.10;77.20;;;;;;4987436;28;20078;-76
2022/06/23 04:59:48;;;;;;;6.35;3.22;;;24.20;77.10;;;;;;4946092;29;20051;-78
2022/06/23 05:02:24;;;;;;;6.45;2.90;;;24.60;74.40;;;;;;4955711;28;20051;-64
2022/06/23 05:05:01;;;;;;;5.93;2.70;;;24.50;76.70;;;;;;4969016;28;20043;-78
2022/06/23 05:07:33;;;;;;;7.13;3.40;;;24.80;74.70;;;;;;4965467;28;20051;-64
2022/06/23 05:10:04;;;;;;;6.72;2.90;;;24.80;75.80;;;;;;4968102;28;20409;-64
2022/06/23 05:12:33;;;;;;;5.18;2.13;;;25.10;75.50;;;;;;4986242;28;20101;-67
2022/06/23 05:15:14;;;;;;;4.72;2.33;;;25.40;75.30;;;;;;4987175;28;20093;-77
2022/06/23 05:17:47;;;;;;;4.07;2.28;;;25.70;76.90;;;;;;4975031;28;20050;-70
2022/06/23 05:20:30;;;;;;;4.78;1.98;;;25.80;73.00;;;;;;5015313;28;20107;-77
2022/06/23 05:22:56;;;;;;;5.22;2.30;;;25.80;74.10;;;;;;5033473;28;20060;-75
2022/06/23 05:25:44;;;;;;;4.38;1.90;;;25.80;73.40;;;;;;5045029;28;20041;-78
2022/06/23 05:28:18;;;;;;;3.53;1.90;;;26.20;75.70;;;;;;5034319;28;20049;-66
2022/06/23 05:30:52;;;;;;;4.20;2.15;;;26.30;72.10;;;;;;5055500;28;20410;-65
2022/06/23 05:33:21;;;;;;;4.78;2.45;;;26.30;73.40;;;;;;5027134;28;20057;-75
2022/06/23 05:35:51;;;;;;;4.07;2.03;;;26.60;73.40;;;;;;5048323;28;20060;-75
2022/06/23 05:38:17;;;;;;;3.20;1.98;;;26.60;71.50;;;;;;5048879;28;20044;-66
2022/06/23 05:40:47;;;;;;;3.25;1.83;;;26.60;72.50;;;;;;5039905;28;20391;-64
2022/06/23 05:43:13;;;;;;;3.40;2.10;;;26.80;71.20;;;;;;5052627;28;20049;-64
2022/06/23 05:45:56;;;;;;;3.05;1.90;;;26.80;72.50;;;;;;5049866;28;20033;-73
2022/06/23 05:48:41;;;;;;;3.67;2.13;;;27.10;71.10;;;;;;5021289;28;20547;-76
2022/06/23 05:51:10;;;;;;;3.53;1.85;;;27.10;72.30;;;;;;5053697;28;20037;-74
2022/06/23 05:53:56;;;;;;;3.35;2.08;;;27.00;72.10;;;;;;5055022;28;20061;-78
2022/06/23 05:56:27;;;;;;;3.58;2.15;;;27.00;70.60;;;;;;5048170;28;20490;-77
2022/06/23 05:59:03;;;;;;;3.30;1.88;;;27.20;72.20;;;;;;5056264;28;20450;-78
2022/06/23 06:01:38;;;;;;;5.15;1.80;;;27.10;72.10;;;;;;5053868;28;20052;-77
2022/06/23 06:04:17;;;;;;;3.58;1.92;;;27.40;70.60;;;;;;5055913;28;20045;-76
2022/06/23 06:06:45;;;;;;;4.03;2.28;;;27.40;70.50;;;;;;5035909;28;20399;-69
2022/06/23 06:11:57;;;;;;;3.92;2.22;;;27.40;71.80;;;;;;5020566;28;20058;-76
2022/06/23 06:14:26;;;;;;;4.85;2.20;;;27.70;71.90;;;;;;5049403;28;20053;-78
2022/06/23 06:16:53;;;;;;;5.60;2.30;;;27.40;71.70;;;;;;5018042;28;20106;-77
2022/06/23 06:19:19;;;;;;;6.55;2.25;;;27.50;71.60;;;;;;5052540;28;20391;-78
2022/06/23 06:21:48;;;;;;;4.78;2.10;;;27.40;71.00;;;;;;5037762;28;20044;-77
2022/06/23 06:24:33;;;;;;;5.30;2.35;;;27.60;71.50;;;;;;5015741;28;20118;-73
2022/06/23 06:26:59;;;;;;;5.25;2.00;;;27.70;71.60;;;;;;5052934;28;20041;-79
2022/06/23 06:29:35;;;;;;;5.68;2.20;;;27.70;71.20;;;;;;5034798;28;20055;-77
2022/06/23 06:32:07;;;;;;;4.70;2.30;;;27.70;71.40;;;;;;5054540;28;20102;-74
2022/06/23 06:34:53;;;;;;;4.82;2.40;;;27.80;71.10;;;;;;5050128;28;20049;-79
2022/06/23 06:37:19;;;;;;;4.57;2.20;;;27.80;69.90;;;;;;5020217;28;20068;-78
2022/06/23 06:39:47;;;;;;;4.75;2.53;;;27.40;70.90;;;;;;5049310;28;20491;-77
2022/06/23 06:42:17;;;;;;;6.78;2.25;;;27.80;71.30;;;;;;5038747;28;20403;-78
2022/06/23 06:44:50;;;;;;;5.22;2.60;;;27.70;71.20;;;;;;5066541;28;20041;-76
2022/06/23 06:47:19;;;;;;;5.55;2.40;;;27.80;71.30;;;;;;5038410;28;20056;-73
2022/06/23 06:49:45;;;;;;;8.82;2.97;;;27.70;71.10;;;;;;5049286;28;20053;-74
2022/06/23 06:52:11;;;;;;;4.18;2.17;;;27.80;70.80;;;;;;5051487;28;20120;-73
2022/06/23 06:54:52;;;;;;;5.88;2.50;;;27.70;71.00;;;;;;5050762;28;20403;-72
2022/06/23 06:57:42;;;;;;;8.77;3.28;;;27.90;69.70;;;;;;5037101;28;20052;-74
2022/06/23 07:00:19;;;;;;;8.25;2.53;;;28.00;69.80;;;;;;5044370;28;20045;-76
2022/06/23 07:02:55;;;;;;;8.10;2.25;;;27.80;69.50;;;;;;5037606;28;20401;-64
2022/06/23 07:05:42;;;;;;;4.85;2.40;;;28.10;69.70;;;;;;5052699;28;20120;-64
2022/06/23 07:08:22;;;;;;;7.57;2.42;;;27.90;71.20;;;;;;5054918;28;20049;-65
2022/06/23 07:11:00;;;;;;;6.60;2.60;;;28.10;69.80;;;;;;5047214;28;20045;-64
2022/06/23 07:13:34;;;;;;;5.68;2.63;;;27.80;69.40;;;;;;5052579;28;20076;-64
2022/06/23 07:16:15;;;;;;;6.38;2.45;;;28.20;69.60;;;;;;5039367;28;20091;-65
2022/06/23 07:18:43;;;;;;;4.78;2.85;;;27.90;69.40;;;;;;5035078;28;20046;-74
2022/06/23 07:21:11;;;;;;;7.40;2.78;;;28.00;70.70;;;;;;5021252;28;20048;-76
2022/06/23 07:23:48;;;;;;;4.15;2.42;;;27.90;69.20;;;;;;5034404;28;20049;-70
2022/06/23 07:26:22;;;;;;;5.63;2.83;;;28.20;71.80;;;;;;5028428;28;20056;-68
2022/06/23 07:28:53;;;;;;;5.88;2.70;;;28.10;71.10;;;;;;5052258;28;20049;-65
2022/06/23 07:31:20;;;;;;;7.00;2.77;;;28.10;69.40;;;;;;5030327;28;20057;-65
2022/06/23 07:33:59;;;;;;;6.65;2.80;;;28.40;71.20;;;;;;5046690;28;20376;-65
2022/06/23 07:36:32;;;;;;;7.68;3.05;;;28.20;71.20;;;;;;5032843;28;20279;-65
2022/06/23 07:39:37;;;;;;;7.05;2.90;;;28.00;71.00;;;;;;5041905;28;20049;-65
2022/06/23 07:42:13;;;;;;;5.13;2.80;;;28.30;71.10;;;;;;5025192;28;20053;-65
2022/06/23 07:44:48;;;;;;;4.60;2.85;;;28.20;69.50;;;;;;5037357;28;20048;-65
2022/06/23 07:47:16;;;;;;;6.45;3.03;;;28.60;69.90;;;;;;5050698;28;20099;-75
2022/06/23 07:49:42;;;;;;;4.15;2.60;;;28.10;70.70;;;;;;5041518;28;20053;-75
2022/06/23 07:52:19;;;;;;;5.72;3.22;;;28.50;70.80;;;;;;5042245;28;20423;-65
2022/06/23 07:54:45;;;;;;;5.20;3.30;;;28.30;71.00;;;;;;5036864;28;20051;-76
2022/06/23 07:57:11;;;;;;;5.63;3.17;;;28.60;70.70;;;;;;5035085;28;20103;-79
2022/06/23 07:59:47;;;;;;;7.75;3.05;;;28.40;70.90;;;;;;5018808;28;20045;-77
2022/06/23 08:02:29;;;;;;;5.78;3.40;;;28.40;69.40;;;;;;5033944;28;20088;-78
2022/06/23 08:05:03;;;;;;;6.75;3.13;;;28.50;71.10;;;;;;5033781;28;20081;-79
2022/06/23 08:07:30;;;;;;;7.53;3.30;;;28.50;71.10;;;;;;5051616;28;20101;-78
2022/06/23 08:09:57;;;;;;;5.43;3.28;;;28.60;71.00;;;;;;5035088;28;20391;-77
2022/06/23 08:18:40;;;;;;;9.88;4.28;;;28.50;69.60;;;;;;5052454;28;20052;-73
2022/06/23 08:21:14;;;;;;;12.85;5.60;;;28.50;69.70;;;;;;5052455;28;20487;-65
2022/06/23 08:24:12;;;;;;;10.68;5.40;;;28.60;70.60;;;;;;5030565;28;20053;-66
2022/06/23 08:26:40;;;;;;;9.55;5.30;;;28.50;69.40;;;;;;5021169;28;20033;-65
2022/06/23 08:29:08;;;;;;;10.80;5.20;;;28.60;70.90;;;;;;5035626;28;20041;-65
2022/06/23 08:31:34;;;;;;;10.02;4.97;;;28.50;70.80;;;;;;5050088;28;20132;-65
2022/06/23 08:34:00;;;;;;;9.40;6.30;;;28.40;70.40;;;;;;5033804;28;20152;-64
2022/06/23 08:36:42;;;;;;;7.93;5.47;;;28.30;70.50;;;;;;5049577;28;20064;-64
2022/06/23 08:39:12;;;;;;;;;;;28.60;71.10;;;;;;5049419;28;20466;-65
2022/06/23 08:42:09;;;;;;;7.90;5.70;;;28.30;70.70;;;;;;5048617;28;19917;-65
2022/06/23 08:45:10;;;;;;;10.88;5.32;;;28.70;69.70;;;;;;5049520;28;20071;-65
2022/06/23 08:48:11;;;;;;;10.85;6.40;;;28.30;69.30;;;;;;5044118;28;20070;-63
2022/06/23 08:50:43;;;;;;;9.25;5.80;;;28.40;69.40;;;;;;5036623;28;20041;-63
2022/06/23 08:53:29;;;;;;;10.48;5.45;;;28.40;69.20;;;;;;5019454;28;20053;-63
2022/06/23 08:55:58;;;;;;;14.00;5.50;;;28.40;71.10;;;;;;5046978;28;20127;-65
2022/06/23 08:58:41;;;;;;;9.55;5.60;;;28.20;69.00;;;;;;5045911;28;20050;-64
2022/06/23 09:01:23;;;;;;;11.45;6.15;;;28.50;69.40;;;;;;5048416;28;20047;-64
2022/06/23 09:03:54;;;;;;;9.38;5.70;;;28.30;69.40;;;;;;5036248;28;20053;-64
2022/06/23 09:06:40;;;;;;;12.88;5.70;;;28.20;69.20;;;;;;5050730;28;20049;-63
2022/06/23 09:09:38;;;;;;;10.32;5.57;;;28.30;71.40;;;;;;5052038;28;20111;-73
2022/06/23 09:12:16;;;;;;;9.38;5.55;;;28.50;69.70;;;;;;5015678;28;20059;-73
2022/06/23 09:15:19;;;;;;;10.95;5.43;;;28.40;69.70;;;;;;5034551;28;20506;-77
2022/06/23 09:18:18;;;;;;;8.73;5.18;;;28.60;70.10;;;;;;5039670;28;20049;-76
2022/06/23 09:20:53;;;;;;;10.60;5.72;;;28.60;70.10;;;;;;5054119;28;20055;-74
2022/06/23 09:23:24;;;;;;;10.07;5.55;;;28.50;71.20;;;;;;5053744;28;20037;-72
2022/06/23 09:26:03;;;;;;;14.00;5.65;;;28.30;69.30;;;;;;5055488;28;20044;-72
2022/06/23 09:28:34;;;;;;;10.35;5.68;;;28.40;69.40;;;;;;5039939;28;20045;-72
2022/06/23 09:31:08;;;;;;;11.60;5.90;;;28.30;70.60;;;;;;5052773;28;20094;-73
2022/06/23 09:33:45;;;;;;;13.60;5.35;;;28.50;71.00;;;;;;5038685;28;20041;-70
2022/06/23 09:36:29;;;;;;;12.23;5.45;;;28.40;69.40;;;;;;5053274;28;20056;-73
2022/06/23 09:39:11;;;;;;;9.68;4.97;;;28.60;69.40;;;;;;5056704;28;20133;-73
2022/06/23 09:41:55;;;;;;;11.75;4.90;;;28.30;69.00;;;;;;5053014;28;20045;-73
2022/06/23 09:44:39;;;;;;;9.52;5.07;;;28.40;70.20;;;;;;5055511;28;20048;-74
2022/06/23 09:47:33;;;;;;;8.00;5.22;;;28.50;68.90;;;;;;5054844;28;20075;-73
2022/06/23 09:50:18;;;;;;;8.75;4.68;;;28.50;69.10;;;;;;5051512;28;20057;-74
2022/06/23 09:53:01;;;;;;;7.63;4.57;;;28.30;69.40;;;;;;5043698;28;20478;-74
2022/06/23 09:55:42;;;;;;;10.68;4.78;;;28.70;69.00;;;;;;5038875;28;20535;-73
2022/06/23 09:58:15;;;;;;;8.75;4.72;;;28.40;68.90;;;;;;5053655;28;20076;-74
2022/06/23 10:00:59;;;;;;;13.07;4.63;;;28.30;69.90;;;;;;5037373;28;20037;-73
2022/06/23 10:03:55;;;;;;;10.73;4.50;;;28.30;68.40;;;;;;5051946;28;20055;-74
2022/06/23 10:06:47;;;;;;;8.93;4.60;;;28.50;70.30;;;;;;5037318;28;20054;-73
2022/06/23 10:09:34;;;;;;;11.07;4.83;;;28.30;68.10;;;;;;5053376;28;20049;-74
2022/06/23 10:12:38;;;;;;;7.85;4.40;;;28.30;68.40;;;;;;5041265;28;20798;-73
2022/06/23 10:15:16;;;;;;;7.78;4.55;;;28.70;68.70;;;;;;5052496;28;20060;-63
2022/06/23 10:17:47;;;;;;;10.52;4.43;;;28.50;68.70;;;;;;5055744;28;20110;-74
2022/06/23 10:20:39;;;;;;;7.47;4.40;;;28.50;68.30;;;;;;5053985;28;20040;-73
2022/06/23 10:23:36;;;;;;;9.55;4.57;;;28.40;68.30;;;;;;5034873;28;20127;-73
2022/06/23 10:26:22;;;;;;;8.43;4.10;;;28.20;68.00;;;;;;5051769;28;20052;-62
2022/06/23 10:28:53;;;;;;;9.15;4.45;;;28.30;68.00;;;;;;5054040;28;20063;-73
2022/06/23 10:31:28;;;;;;;6.63;4.28;;;28.40;69.20;;;;;;5054173;28;20040;-71
2022/06/23 10:34:13;;;;;;;9.73;4.25;;;28.30;68.00;;;;;;5054457;28;20157;-73
2022/06/23 10:36:57;;;;;;;7.45;4.18;;;28.00;67.50;;;;;;5036722;28;20061;-75
2022/06/23 10:39:35;;;;;;;7.82;3.83;;;28.30;67.50;;;;;;5046498;28;20586;-74
2022/06/23 10:42:36;;;;;;;6.90;3.88;;;28.60;67.70;;;;;;5048716;28;20106;-72
2022/06/23 10:45:21;;;;;;;6.72;3.83;;;28.50;67.60;;;;;;5016693;28;20084;-76
2022/06/23 10:48:02;;;;;;;6.32;4.28;;;28.40;69.30;;;;;;5016796;28;20120;-75
2022/06/23 10:50:58;;;;;;;8.82;4.10;;;28.20;67.40;;;;;;5016828;28;20557;-75
2022/06/23 10:53:41;;;;;;;9.05;4.57;;;28.20;67.30;;;;;;5014954;28;20605;-74
2022/06/23 10:56:40;;;;;;;8.52;4.65;;;28.20;67.20;;;;;;5009611;28;20061;-73
2022/06/23 10:59:37;;;;;;;5.70;4.10;;;28.10;66.80;;;;;;5000350;28;20045;-64
2022/06/23 11:02:05;;;;;;;9.02;4.68;;;28.30;66.80;;;;;;4996501;28;20041;-65
2022/06/23 11:04:49;;;;;;;6.75;4.15;;;28.40;68.30;;;;;;5016317;28;20107;-64
2022/06/23 11:07:36;;;;;;;7.00;4.50;;;28.40;67.70;;;;;;5014695;28;20124;-65
2022/06/23 11:10:29;;;;;;;7.35;4.32;;;28.60;66.50;;;;;;5013834;28;20049;-66
2022/06/23 11:13:19;;;;;;;10.20;4.53;;;28.50;66.70;;;;;;5020708;28;20522;-64
2022/06/23 11:16:06;;;;;;;7.95;4.53;;;28.50;66.70;;;;;;5017822;28;20072;-65
2022/06/23 11:19:03;;;;;;;10.43;4.55;;;28.50;66.50;;;;;;5036801;28;20123;-65
2022/06/23 11:21:35;;;;;;;10.85;4.70;;;28.40;66.30;;;;;;5053635;28;20450;-66
2022/06/23 11:24:06;;;;;;;10.90;4.90;;;28.30;67.60;;;;;;5054256;28;20120;-67
2022/06/23 11:26:38;;;;;;;10.73;4.47;;;28.40;66.10;;;;;;5053172;28;20049;-66
2022/06/23 11:29:28;;;;;;;10.30;4.53;;;28.40;67.40;;;;;;5048885;28;20636;-65
2022/06/23 11:32:15;;;;;;;10.98;4.63;;;28.60;67.90;;;;;;5033885;28;20141;-67
2022/06/23 11:34:55;;;;;;;12.02;4.78;;;28.30;66.10;;;;;;5049590;28;20372;-65
2022/06/23 11:37:29;;;;;;;8.82;4.22;;;28.50;66.40;;;;;;5052791;28;20060;-64
2022/06/23 11:40:19;;;;;;;11.13;4.78;;;28.30;66.40;;;;;;5053131;28;20099;-64
2022/06/23 11:42:55;;;;;;;9.10;4.28;;;28.30;66.40;;;;;;5066578;28;20051;-67
2022/06/23 11:45:44;;;;;;;11.68;4.68;;;28.40;66.40;;;;;;5040219;28;20147;-64
2022/06/23 11:48:47;;;;;;;10.35;4.28;;;28.60;66.50;;;;;;5054135;28;20048;-64
2022/06/23 11:51:19;;;;;;;11.63;4.20;;;28.20;66.30;;;;;;5049161;28;20033;-64
2022/06/23 11:54:22;;;;;;;9.40;4.75;;;28.40;67.40;;;;;;5052788;28;20040;-64
2022/06/23 11:57:16;;;;;;;6.43;4.25;;;29.10;66.90;;;;;;5051035;28;20477;-64
2022/06/23 11:59:45;;;;;;;11.25;4.45;;;28.70;66.40;;;;;;5050408;28;20387;-64
2022/06/23 12:02:11;;;;;;;15.88;4.18;;;28.60;67.20;;;;;;5027933;28;20049;-64
2022/06/23 12:04:46;;;;;;;9.38;4.50;;;28.60;67.00;;;;;;5059583;28;20124;-65
2022/06/23 12:07:19;;;;;;;10.38;4.43;;;28.50;66.10;;;;;;5053628;28;20491;-65
2022/06/23 12:09:53;;;;;;;8.20;4.45;;;28.70;66.20;;;;;;5052302;28;20407;-65
2022/06/23 12:12:20;;;;;;;14.15;4.60;;;28.50;66.20;;;;;;5034676;28;20371;-65
2022/06/23 12:14:46;;;;;;;7.63;4.10;;;28.60;67.50;;;;;;5032727;28;20431;-65
2022/06/23 12:17:17;;;;;;;9.68;4.05;;;28.60;67.10;;;;;;5032229;28;20064;-64
2022/06/23 12:19:50;;;;;;;11.45;4.35;;;28.50;65.80;;;;;;5015851;28;20124;-65
2022/06/23 12:22:22;;;;;;;;;;;28.30;66.80;;;;;;5028353;28;20053;-65
2022/06/23 12:25:03;;;;;;;12.00;4.30;;;28.40;66.10;;;;;;5048634;28;19964;-65
2022/06/23 12:27:46;;;;;;;6.30;3.75;;;28.60;66.10;;;;;;5032114;28;20052;-65
2022/06/23 12:30:16;;;;;;;7.38;4.53;;;28.60;65.90;;;;;;5047426;28;20179;-65
2022/06/23 12:32:49;;;;;;;7.05;3.55;;;28.30;67.10;;;;;;5048443;28;20045;-65
2022/06/23 12:35:23;;;;;;;8.90;3.58;;;28.80;65.70;;;;;;5032982;28;20054;-65
2022/06/23 12:38:05;;;;;;;9.13;3.50;;;28.70;65.70;;;;;;5051261;28;20059;-65
2022/06/23 12:40:45;;;;;;;8.27;3.80;;;28.90;65.50;;;;;;5051198;28;20559;-65
2022/06/23 12:43:17;;;;;;;8.73;3.72;;;28.80;65.60;;;;;;5051112;28;20089;-64
2022/06/23 12:46:20;;;;;;;9.03;4.00;;;28.50;66.30;;;;;;5035312;28;20049;-64
2022/06/23 12:48:54;;;;;;;7.13;3.38;;;28.90;65.20;;;;;;5053337;28;20389;-65
2022/06/23 12:52:00;;;;;;;9.05;3.88;;;28.60;66.20;;;;;;5052875;28;20045;-65
2022/06/23 12:54:50;;;;;;;6.80;3.10;;;28.80;64.90;;;;;;5054709;28;20045;-65
2022/06/23 12:57:46;;;;;;;5.72;3.33;;;28.80;65.00;;;;;;5037030;28;20133;-65
2022/06/23 13:00:40;;;;;;;6.50;3.22;;;28.60;65.00;;;;;;5035885;28;20054;-65
2022/06/23 13:03:32;;;;;;;6.70;3.13;;;28.80;65.00;;;;;;5028370;28;20083;-65
2022/06/23 13:06:19;;;;;;;;;;;29.00;64.90;;;;;;4968751;28;20049;-64
2022/06/23 13:09:22;;;;;;;5.85;3.40;;;29.00;64.80;;;;;;5032719;28;19921;-64
2022/06/23 13:11:50;;;;;;;;;;;28.80;65.00;;;;;;5020219;28;20038;-65
2022/06/23 13:14:44;;;;;;;6.63;3.45;;;29.10;66.80;;;;;;5036283;28;20003;-66
2022/06/23 13:17:21;;;;;;;6.72;3.60;;;28.80;64.90;;;;;;5014761;28;20455;-65
2022/06/23 13:20:09;;;;;;;7.18;3.08;;;28.80;66.60;;;;;;5028329;28;20054;-66
2022/06/23 13:22:52;;;;;;;6.53;3.25;;;28.70;64.80;;;;;;5028904;28;20137;-66
2022/06/23 13:25:22;;;;;;;6.88;3.30;;;28.60;64.60;;;;;;4998338;28;20054;-65
2022/06/23 13:27:49;;;;;;;10.32;3.30;;;28.70;66.30;;;;;;5014788;28;20062;-66
2022/06/23 13:30:15;;;;;;;18.80;4.40;;;28.90;66.40;;;;;;5023384;28;20172;-66
2022/06/23 13:32:46;;;;;;;16.58;3.95;;;28.80;66.00;;;;;;5031015;28;20548;-66
2022/06/23 13:35:30;;;;;;;12.55;4.25;;;28.70;66.20;;;;;;5031053;28;20050;-65
2022/06/23 13:38:02;;;;;;;12.23;4.30;;;28.70;64.70;;;;;;5012258;28;20054;-66
2022/06/23 13:40:51;;;;;;;5.82;3.53;;;28.70;64.70;;;;;;5033069;28;20087;-65
2022/06/23 13:43:33;;;;;;;10.00;4.43;;;28.80;64.80;;;;;;5017095;28;20077;-65
2022/06/23 13:46:06;;;;;;;9.48;3.70;;;28.90;66.40;;;;;;5001147;28;20535;-66
2022/06/23 13:48:45;;;;;;;15.35;4.15;;;28.90;66.50;;;;;;4985568;28;20128;-65
2022/06/23 13:51:45;;;;;;;10.20;4.63;;;28.60;64.40;;;;;;5012497;28;20045;-64
2022/06/23 13:54:41;;;;;;;17.20;4.32;;;28.80;64.90;;;;;;5045221;28;20447;-64
2022/06/23 13:57:09;;;;;;;7.18;3.50;;;28.70;65.40;;;;;;5033791;28;20488;-65
2022/06/23 13:59:56;;;;;;;7.07;3.85;;;28.70;64.60;;;;;;5017360;28;20053;-67
2022/06/23 14:02:26;;;;;;;10.30;4.18;;;29.00;64.50;;;;;;5011219;28;20045;-65
2022/06/23 14:04:58;;;;;;;7.07;3.72;;;28.90;64.20;;;;;;4994392;28;20097;-66